Lyons, Kansas
Current Conditions -  °F | °C
As of 9:52 PM on Wednesday 22 Oct 2014 (Local Time) from KHUT Reporting Station
Overcast Overcast  
Wind Chill: 63°   Ceiling: 9000
Heat Index: 63°   Visibility: 10mi
Dew Point: 58°   Wind: 9mph
Humidity: 84%   Direction: 150°SSE
Pressure: 30.08"   Gusts: NA
Location:  38.35°N, 98.2°W
Report Text: KHUT 230252Z 15008KT 10SM BKN090 OVC110 17/14 A3008 RMK AO2 RAE22 SLP170 P0000 60000 T01720144 53004
Loading
Personal Weather Stations






























Interactive Weather Map
Tropical Storm Tracking
New forecast layout! Learn more

10-Day Weather Forecast

Advertisements
Track Severe Weather on mobile